createdAt,value
2022-08-22T00:00:13.486Z,2.38
2022-08-22T00:02:21.530Z,2.70
2022-08-22T00:02:45.442Z,2.53
2022-08-22T00:02:46.586Z,3.30
2022-08-22T00:04:33.389Z,3.20
2022-08-22T00:06:43.709Z,3.00
2022-08-22T00:08:55.583Z,3.50
2022-08-22T00:11:02.513Z,2.80
2022-08-22T00:13:09.617Z,3.03
2022-08-22T00:15:42.070Z,3.13
2022-08-22T00:17:45.006Z,2.72
2022-08-22T00:19:51.163Z,3.95
2022-08-22T00:21:58.683Z,3.00
2022-08-22T00:24:09.645Z,3.63
2022-08-22T00:26:22.942Z,3.22
2022-08-22T00:28:31.667Z,3.28
2022-08-22T00:30:47.804Z,2.70
2022-08-22T00:32:54.334Z,3.08
2022-08-22T00:35:01.397Z,3.10
2022-08-22T00:37:09.057Z,3.42
2022-08-22T00:39:16.273Z,2.83
2022-08-22T00:41:31.365Z,3.55
2022-08-22T00:44:07.812Z,3.17
2022-08-22T00:46:24.432Z,3.20
2022-08-22T00:49:03.723Z,2.83
2022-08-22T00:51:20.169Z,3.38
2022-08-22T00:53:36.214Z,3.35
2022-08-22T00:55:53.873Z,2.95
2022-08-22T00:58:28.875Z,3.28
2022-08-22T01:00:41.929Z,3.08
2022-08-22T01:02:58.557Z,3.00
2022-08-22T01:05:17.118Z,3.08
2022-08-22T01:07:38.111Z,2.50
2022-08-22T01:09:50.622Z,2.97
2022-08-22T01:12:06.835Z,3.17
2022-08-22T01:14:20.099Z,3.33
2022-08-22T01:16:54.867Z,3.60
2022-08-22T01:19:13.111Z,3.50
2022-08-22T01:21:42.268Z,3.22
2022-08-22T01:24:33.768Z,3.65
2022-08-22T01:27:03.643Z,2.75
2022-08-22T01:29:46.088Z,2.28
2022-08-22T01:32:15.555Z,2.78
2022-08-22T01:34:41.602Z,3.10
2022-08-22T01:37:11.616Z,3.13
2022-08-22T01:39:44.553Z,2.63
2022-08-22T01:42:25.434Z,3.88
2022-08-22T01:44:44.858Z,3.00
2022-08-22T01:46:56.202Z,3.45
2022-08-22T01:49:06.747Z,3.28
2022-08-22T01:51:22.078Z,3.22
2022-08-22T01:53:28.172Z,2.75
2022-08-22T01:55:33.343Z,3.40
2022-08-22T01:57:50.551Z,3.20
2022-08-22T01:59:57.327Z,2.92
2022-08-22T02:02:04.926Z,3.03
2022-08-22T02:04:13.081Z,2.85
2022-08-22T02:06:20.919Z,3.05
2022-08-22T02:08:28.388Z,3.20
2022-08-22T02:10:44.889Z,2.90
2022-08-22T02:12:56.180Z,2.42
2022-08-22T02:15:07.269Z,3.45
2022-08-22T02:17:17.474Z,3.53
2022-08-22T02:19:33.065Z,2.80
2022-08-22T02:21:44.923Z,3.47
2022-08-22T02:23:59.316Z,3.00
2022-08-22T02:26:08.489Z,2.85
2022-08-22T02:28:14.244Z,3.17
2022-08-22T02:30:19.171Z,2.60
2022-08-22T02:32:28.477Z,3.05
2022-08-22T02:34:37.978Z,3.38
2022-08-22T02:36:47.794Z,3.47
2022-08-22T02:39:00.116Z,3.35
2022-08-22T02:41:11.515Z,3.83
2022-08-22T02:43:19.111Z,3.63
2022-08-22T02:45:28.122Z,2.92
2022-08-22T02:47:35.288Z,2.97
2022-08-22T02:49:48.391Z,3.72
2022-08-22T02:51:56.771Z,3.60
2022-08-22T02:54:08.953Z,3.55
2022-08-22T02:56:15.690Z,2.97
2022-08-22T02:58:24.736Z,3.38
2022-08-22T03:00:32.661Z,3.38
2022-08-22T03:02:38.237Z,3.55
2022-08-22T03:04:50.326Z,3.85
2022-08-22T03:07:09.653Z,4.28
2022-08-22T03:09:24.591Z,4.10
2022-08-22T03:11:30.185Z,3.53
2022-08-22T03:13:41.166Z,3.28
2022-08-22T03:15:49.624Z,3.78
2022-08-22T03:17:58.110Z,3.72
2022-08-22T03:20:06.651Z,3.40
2022-08-22T03:22:15.252Z,3.55
2022-08-22T03:24:22.944Z,2.90
2022-08-22T03:26:28.503Z,3.70
2022-08-22T03:28:33.890Z,3.67
2022-08-22T03:30:42.431Z,3.65
2022-08-22T03:32:52.324Z,3.97
2022-08-22T03:34:58.019Z,4.20
2022-08-22T03:37:07.351Z,3.50
2022-08-22T03:39:19.352Z,3.72
2022-08-22T03:41:44.767Z,3.70
2022-08-22T03:44:12.098Z,3.20
2022-08-22T03:46:46.817Z,4.70
2022-08-22T03:49:20.383Z,4.07
2022-08-22T03:51:42.323Z,3.83
2022-08-22T03:54:19.209Z,3.95
2022-08-22T03:56:44.854Z,3.78
2022-08-22T03:59:13.726Z,4.00
2022-08-22T04:02:01.419Z,4.70
2022-08-22T04:04:31.828Z,4.32
2022-08-22T04:06:56.443Z,3.88
2022-08-22T04:09:35.854Z,4.50
2022-08-22T04:11:51.085Z,4.25
2022-08-22T04:14:40.899Z,4.35
2022-08-22T04:17:05.652Z,4.38
2022-08-22T04:19:31.221Z,5.25
2022-08-22T04:21:43.791Z,5.35
2022-08-22T04:24:01.257Z,4.50
2022-08-22T04:26:12.375Z,5.10
2022-08-22T04:28:20.801Z,5.00
2022-08-22T04:30:28.692Z,5.00
2022-08-22T04:32:37.048Z,5.45
2022-08-22T04:34:44.133Z,5.43
2022-08-22T04:36:50.749Z,5.25
2022-08-22T04:38:59.738Z,4.95
2022-08-22T04:41:10.928Z,5.80
2022-08-22T04:43:18.839Z,4.35
2022-08-22T04:45:25.045Z,5.95
2022-08-22T04:47:32.374Z,5.43
2022-08-22T04:49:38.659Z,5.60
2022-08-22T04:51:43.644Z,4.45
2022-08-22T04:53:57.264Z,4.75
2022-08-22T04:56:12.512Z,4.88
2022-08-22T04:58:25.792Z,4.78
2022-08-22T05:00:38.039Z,5.63
2022-08-22T05:02:45.518Z,4.80
2022-08-22T05:04:59.128Z,4.22
2022-08-22T05:07:06.608Z,4.88
2022-08-22T05:09:16.036Z,4.90
2022-08-22T05:11:23.562Z,4.22
2022-08-22T05:13:31.153Z,4.35
2022-08-22T05:15:36.800Z,4.50
2022-08-22T05:17:40.225Z,4.20
2022-08-22T05:19:46.484Z,4.70
2022-08-22T05:21:50.743Z,4.75
2022-08-22T05:23:56.666Z,3.90
2022-08-22T05:26:02.948Z,3.65
2022-08-22T05:28:11.830Z,4.53
2022-08-22T05:30:21.790Z,3.65
2022-08-22T05:32:29.049Z,3.95
2022-08-22T05:34:36.207Z,4.57
2022-08-22T05:36:42.433Z,4.80
2022-08-22T05:38:50.398Z,3.83
2022-08-22T05:40:57.347Z,4.20
2022-08-22T05:43:00.436Z,3.88
2022-08-22T05:45:12.206Z,4.10
2022-08-22T05:47:22.424Z,4.20
2022-08-22T05:49:33.437Z,3.53
2022-08-22T05:51:41.862Z,3.58
2022-08-22T05:53:48.432Z,3.85
2022-08-22T05:55:56.641Z,4.32
2022-08-22T05:58:19.688Z,3.92
2022-08-22T06:00:27.003Z,4.00
2022-08-22T06:02:46.577Z,3.58
2022-08-22T06:04:52.374Z,3.55
2022-08-22T06:07:00.842Z,4.38
2022-08-22T06:09:06.862Z,3.28
2022-08-22T06:11:15.492Z,3.58
2022-08-22T06:13:24.710Z,3.70
2022-08-22T06:15:34.421Z,4.03
2022-08-22T06:17:42.812Z,4.00
2022-08-22T06:19:47.947Z,4.22
2022-08-22T06:21:52.275Z,5.03
2022-08-22T06:23:58.947Z,4.55
2022-08-22T06:26:02.504Z,4.13
2022-08-22T06:28:08.263Z,3.90
2022-08-22T06:30:14.579Z,5.32
2022-08-22T06:32:44.599Z,5.00
2022-08-22T06:34:47.660Z,4.50
2022-08-22T06:36:51.858Z,5.20
2022-08-22T06:38:58.851Z,4.90
2022-08-22T06:41:03.273Z,3.78
2022-08-22T06:43:12.430Z,4.45
2022-08-22T06:45:19.743Z,4.60
2022-08-22T06:47:27.966Z,4.35
2022-08-22T06:49:32.181Z,4.43
2022-08-22T06:51:37.123Z,4.85
2022-08-22T06:53:47.654Z,5.53
2022-08-22T06:55:53.464Z,6.97
2022-08-22T06:57:59.043Z,6.50
2022-08-22T07:00:05.486Z,6.03
2022-08-22T07:02:16.901Z,5.53
2022-08-22T07:04:26.500Z,5.88
2022-08-22T07:06:31.773Z,6.40
2022-08-22T07:08:39.118Z,5.65
2022-08-22T07:10:43.604Z,5.10
2022-08-22T07:12:48.597Z,4.47
2022-08-22T07:14:55.367Z,5.18
2022-08-22T07:17:00.769Z,4.63
2022-08-22T07:19:03.904Z,3.83
2022-08-22T07:21:11.458Z,3.88
2022-08-22T07:23:24.837Z,3.60
2022-08-22T07:25:28.747Z,3.30
2022-08-22T07:27:44.395Z,3.25
2022-08-22T07:30:00.730Z,3.60
2022-08-22T07:32:12.469Z,3.60
2022-08-22T07:34:25.685Z,2.88
2022-08-22T07:36:33.182Z,2.78
2022-08-22T07:38:42.590Z,3.67
2022-08-22T07:40:51.922Z,2.97
2022-08-22T07:42:59.749Z,3.25
2022-08-22T07:45:07.160Z,3.28
2022-08-22T07:47:13.817Z,3.25
2022-08-22T07:49:21.774Z,2.28
2022-08-22T07:51:29.530Z,2.78
2022-08-22T07:53:40.984Z,3.00
2022-08-22T07:55:49.808Z,2.70
2022-08-22T07:57:55.733Z,2.58
2022-08-22T08:00:01.047Z,3.10
2022-08-22T08:02:07.203Z,2.60
2022-08-22T08:04:13.538Z,3.00
2022-08-22T08:06:17.207Z,2.92
2022-08-22T08:08:23.632Z,2.30
2022-08-22T08:10:34.488Z,2.70
2022-08-22T08:12:39.856Z,2.80
2022-08-22T08:14:45.135Z,2.90
2022-08-22T08:16:55.640Z,2.53
2022-08-22T08:19:00.005Z,3.20
2022-08-22T08:21:09.118Z,2.40
2022-08-22T08:23:22.251Z,2.08
2022-08-22T08:25:29.943Z,2.80
2022-08-22T08:27:53.922Z,2.40
2022-08-22T08:30:00.078Z,2.88
2022-08-22T08:32:03.167Z,2.72
2022-08-22T08:34:09.556Z,2.53
2022-08-22T08:36:24.911Z,2.50
2022-08-22T08:38:33.615Z,2.72
2022-08-22T08:40:55.418Z,2.53
2022-08-22T08:43:36.071Z,2.95
2022-08-22T08:45:58.274Z,1.92
2022-08-22T08:48:14.629Z,2.67
2022-08-22T08:50:37.188Z,2.85
2022-08-22T08:52:59.568Z,2.15
2022-08-22T08:55:22.480Z,2.92
2022-08-22T08:57:38.717Z,2.20
2022-08-22T08:59:46.281Z,2.40
2022-08-22T09:02:08.822Z,2.30
2022-08-22T09:04:36.054Z,1.88
2022-08-22T09:06:54.785Z,2.42
2022-08-22T09:09:24.724Z,2.42
2022-08-22T09:12:09.287Z,2.08
2022-08-22T09:14:23.898Z,2.20
2022-08-22T09:16:46.240Z,2.17
2022-08-22T09:19:20.581Z,2.42
2022-08-22T09:21:39.884Z,2.17
2022-08-22T09:24:08.661Z,2.30
2022-08-22T09:26:17.374Z,2.03
2022-08-22T09:28:28.304Z,1.83
2022-08-22T09:30:54.103Z,2.00
2022-08-22T09:33:00.939Z,1.98
2022-08-22T09:35:08.913Z,2.15
2022-08-22T09:37:19.504Z,1.83
2022-08-22T09:39:26.787Z,2.20
2022-08-22T09:41:39.028Z,1.70
2022-08-22T09:43:48.780Z,2.10
2022-08-22T09:46:02.008Z,1.92
2022-08-22T09:48:11.308Z,1.85
2022-08-22T09:50:17.668Z,2.28
2022-08-22T09:52:32.050Z,3.03
2022-08-22T09:54:42.662Z,1.90
2022-08-22T09:56:55.740Z,2.20
2022-08-22T09:59:04.378Z,2.22
2022-08-22T10:01:19.652Z,1.70
2022-08-22T10:03:29.768Z,1.67
2022-08-22T10:05:44.866Z,1.58
2022-08-22T10:08:11.754Z,1.95
2022-08-22T10:10:26.311Z,1.75
2022-08-22T10:12:36.058Z,1.63
2022-08-22T10:14:51.093Z,2.15
2022-08-22T10:17:08.767Z,1.73
2022-08-22T10:19:19.009Z,2.40
2022-08-22T10:21:31.579Z,1.48
2022-08-22T10:23:38.534Z,1.70
2022-08-22T10:25:45.926Z,1.90
2022-08-22T10:27:57.053Z,2.00
2022-08-22T10:30:07.062Z,2.00
2022-08-22T10:32:27.532Z,1.63
2022-08-22T10:34:34.622Z,2.50
2022-08-22T10:36:47.038Z,2.08
2022-08-22T10:38:54.783Z,1.88
2022-08-22T10:41:09.156Z,2.55
2022-08-22T10:43:16.115Z,1.95
2022-08-22T10:45:36.759Z,1.95
2022-08-22T10:48:01.323Z,2.33
2022-08-22T10:50:10.898Z,1.83
2022-08-22T10:52:21.831Z,2.40
2022-08-22T10:54:32.706Z,2.15
2022-08-22T10:56:43.881Z,1.77
2022-08-22T10:58:54.883Z,2.17
2022-08-22T11:01:00.405Z,1.83
2022-08-22T11:03:18.727Z,1.50
2022-08-22T11:05:37.905Z,2.03
2022-08-22T11:07:50.206Z,2.42
2022-08-22T11:09:57.645Z,2.50
2022-08-22T11:12:04.428Z,1.67
2022-08-22T11:14:38.074Z,2.30
2022-08-22T11:16:55.321Z,2.05
2022-08-22T11:19:15.571Z,2.20
2022-08-22T11:21:29.078Z,1.98
2022-08-22T11:23:45.152Z,1.90
2022-08-22T11:25:55.061Z,2.05
2022-08-22T11:28:32.569Z,2.53
2022-08-22T11:30:44.985Z,2.25
2022-08-22T11:33:16.901Z,2.28
2022-08-22T11:35:24.244Z,2.33
2022-08-22T11:37:48.653Z,2.03
2022-08-22T11:40:06.369Z,2.30
2022-08-22T11:42:21.871Z,1.95
2022-08-22T11:44:28.630Z,1.90
2022-08-22T11:46:35.364Z,1.92
2022-08-22T11:48:48.548Z,2.20
2022-08-22T11:50:56.457Z,2.72
2022-08-22T11:53:24.248Z,2.28
2022-08-22T11:55:32.996Z,2.00
2022-08-22T11:57:39.002Z,1.90
2022-08-22T12:00:01.810Z,2.20
2022-08-22T12:02:13.533Z,2.30
2022-08-22T12:04:20.131Z,2.03
2022-08-22T12:06:54.485Z,2.25
2022-08-22T12:09:13.166Z,2.67
2022-08-22T12:11:20.643Z,2.15
2022-08-22T12:13:35.608Z,2.20
2022-08-22T12:15:44.794Z,3.55
2022-08-22T12:18:27.018Z,2.40
2022-08-22T12:20:49.325Z,2.25
2022-08-22T12:23:08.619Z,1.67
2022-08-22T12:25:19.560Z,1.90
2022-08-22T12:27:48.283Z,2.22
2022-08-22T12:30:04.615Z,1.77
2022-08-22T12:32:44.053Z,2.00
2022-08-22T12:34:56.319Z,2.00
2022-08-22T12:37:12.916Z,2.10
2022-08-22T12:40:17.845Z,2.20
2022-08-22T12:42:33.145Z,1.75
2022-08-22T12:44:43.040Z,2.58
2022-08-22T12:46:56.824Z,1.90
2022-08-22T12:49:24.901Z,2.08
2022-08-22T12:51:32.451Z,1.77
2022-08-22T12:54:13.854Z,2.17
2022-08-22T12:56:29.561Z,1.92
2022-08-22T12:58:51.178Z,1.77
2022-08-22T13:01:00.688Z,1.85
2022-08-22T13:03:06.097Z,1.75
2022-08-22T13:05:19.695Z,1.92
2022-08-22T13:07:25.958Z,1.88
2022-08-22T13:09:31.472Z,1.85
2022-08-22T13:11:41.687Z,2.20
2022-08-22T13:13:55.989Z,2.08
2022-08-22T13:16:01.613Z,1.60
2022-08-22T13:18:29.237Z,2.25
2022-08-22T13:20:36.835Z,2.63
2022-08-22T13:22:45.603Z,2.05
2022-08-22T13:24:54.528Z,2.13
2022-08-22T13:27:05.717Z,1.75
2022-08-22T13:29:39.368Z,1.92
2022-08-22T13:31:42.506Z,2.28
2022-08-22T13:33:48.007Z,1.60
2022-08-22T13:35:54.745Z,1.98
2022-08-22T13:38:05.819Z,2.10
2022-08-22T13:40:12.188Z,1.95
2022-08-22T13:42:27.773Z,2.00
2022-08-22T13:44:40.047Z,2.90
2022-08-22T13:47:10.870Z,1.88
2022-08-22T13:49:09.160Z,2.08
2022-08-22T13:51:17.137Z,2.47
2022-08-22T13:53:27.697Z,2.20
2022-08-22T13:55:34.630Z,1.90
2022-08-22T13:57:41.800Z,1.95
2022-08-22T13:59:52.448Z,2.08
2022-08-22T14:02:00.854Z,2.00
2022-08-22T14:04:17.540Z,2.20
2022-08-22T14:06:37.986Z,2.75
2022-08-22T14:08:45.873Z,2.58
2022-08-22T14:10:55.205Z,2.05
2022-08-22T14:13:26.981Z,2.35
2022-08-22T14:15:33.961Z,2.00
2022-08-22T14:17:49.186Z,2.20
2022-08-22T14:19:58.798Z,2.00
2022-08-22T14:22:04.927Z,2.42
2022-08-22T14:24:14.527Z,2.65
2022-08-22T14:26:27.001Z,2.05
2022-08-22T14:28:39.021Z,2.25
2022-08-22T14:30:54.623Z,2.50
2022-08-22T14:33:09.963Z,2.17
2022-08-22T14:35:23.556Z,2.20
2022-08-22T14:37:39.012Z,2.35
2022-08-22T14:39:46.179Z,2.00
2022-08-22T14:41:56.561Z,2.33
2022-08-22T14:44:06.757Z,3.03
2022-08-22T14:46:14.290Z,2.03
2022-08-22T14:48:30.292Z,2.28
2022-08-22T14:50:42.244Z,2.47
2022-08-22T14:52:48.513Z,2.53
2022-08-22T14:55:08.177Z,2.60
2022-08-22T14:57:19.801Z,2.90
2022-08-22T14:59:38.951Z,2.85
2022-08-22T15:01:55.227Z,3.03
2022-08-22T15:04:03.213Z,2.42
2022-08-22T15:06:12.511Z,2.60
2022-08-22T15:08:24.207Z,3.10
2022-08-22T15:10:34.085Z,3.67
2022-08-22T15:12:40.251Z,3.60
2022-08-22T15:14:52.234Z,2.50
2022-08-22T15:16:58.245Z,2.08
2022-08-22T15:19:01.695Z,3.15
2022-08-22T15:21:10.267Z,2.42
2022-08-22T15:23:20.854Z,2.00
2022-08-22T15:25:27.458Z,2.08
2022-08-22T15:27:31.727Z,2.67
2022-08-22T15:29:51.852Z,1.88
2022-08-22T15:31:57.854Z,1.98
2022-08-22T15:34:11.668Z,2.67
2022-08-22T15:36:20.217Z,2.10
2022-08-22T15:38:29.581Z,2.38
2022-08-22T15:40:40.455Z,2.03
2022-08-22T15:42:46.034Z,2.45
2022-08-22T15:44:57.187Z,2.30
2022-08-22T15:47:05.262Z,2.40
2022-08-22T15:49:25.037Z,2.30
2022-08-22T15:51:38.374Z,2.47
2022-08-22T15:54:01.470Z,1.88
2022-08-22T15:56:29.249Z,2.22
2022-08-22T15:58:32.590Z,2.35
2022-08-22T16:00:43.806Z,1.80
2022-08-22T16:02:56.987Z,2.30
2022-08-22T16:05:18.825Z,2.00
2022-08-22T16:07:27.423Z,2.03
2022-08-22T16:09:36.861Z,2.05
2022-08-22T16:11:40.588Z,2.03
2022-08-22T16:13:46.181Z,2.40
2022-08-22T16:15:58.276Z,2.42
2022-08-22T16:18:01.376Z,1.83
2022-08-22T16:20:40.245Z,2.45
2022-08-22T16:23:07.596Z,2.25
2022-08-22T16:25:10.980Z,1.95
2022-08-22T16:27:21.152Z,2.03
2022-08-22T16:29:37.672Z,2.10
2022-08-22T16:31:58.366Z,2.25
2022-08-22T16:34:23.941Z,2.28
2022-08-22T16:36:45.530Z,2.58
2022-08-22T16:38:51.186Z,2.50
2022-08-22T16:40:54.676Z,1.73
2022-08-22T16:43:16.802Z,2.40
2022-08-22T16:45:22.995Z,2.05
2022-08-22T16:47:42.557Z,2.42
2022-08-22T16:49:59.145Z,2.20
2022-08-22T16:52:39.298Z,2.25
2022-08-22T16:54:44.467Z,2.08
2022-08-22T16:56:57.074Z,2.33
2022-08-22T16:59:23.302Z,2.53
2022-08-22T17:01:36.073Z,1.70
2022-08-22T17:03:47.391Z,2.22
2022-08-22T17:05:57.353Z,1.63
2022-08-22T17:08:14.809Z,2.03
2022-08-22T17:10:30.223Z,1.90
2022-08-22T17:12:45.780Z,1.67
2022-08-22T17:14:57.836Z,2.53
2022-08-22T17:17:17.441Z,2.10
2022-08-22T17:19:35.495Z,1.75
2022-08-22T17:21:41.602Z,2.30
2022-08-22T17:24:03.307Z,1.95
2022-08-22T17:26:20.935Z,1.98
2022-08-22T17:28:34.386Z,2.72
2022-08-22T17:30:41.976Z,2.15
2022-08-22T17:33:00.399Z,1.92
2022-08-22T17:35:15.942Z,2.28
2022-08-22T17:37:23.426Z,2.17
2022-08-22T17:39:41.905Z,2.40
2022-08-22T17:41:51.558Z,2.30
2022-08-22T17:44:03.663Z,2.20
2022-08-22T17:46:31.638Z,2.25
2022-08-22T17:48:41.984Z,2.15
2022-08-22T17:50:49.231Z,2.17
2022-08-22T17:52:55.691Z,2.55
2022-08-22T17:55:01.938Z,2.08
2022-08-22T17:57:08.653Z,2.30
2022-08-22T17:59:21.053Z,1.98
2022-08-22T18:01:46.737Z,2.55
2022-08-22T18:03:54.700Z,1.60
2022-08-22T18:06:07.866Z,1.90
2022-08-22T18:08:37.441Z,2.17
2022-08-22T18:10:45.165Z,2.20
2022-08-22T18:12:54.368Z,2.25
2022-08-22T18:15:01.063Z,2.10
2022-08-22T18:17:15.162Z,2.35
2022-08-22T18:19:36.307Z,1.90
2022-08-22T18:21:45.264Z,2.03
2022-08-22T18:23:51.615Z,2.28
2022-08-22T18:26:09.281Z,2.08
2022-08-22T18:28:22.996Z,2.85
2022-08-22T18:30:28.054Z,2.20
2022-08-22T18:32:35.669Z,2.35
2022-08-22T18:34:44.013Z,2.28
2022-08-22T18:36:55.322Z,2.05
2022-08-22T18:39:03.274Z,1.60
2022-08-22T18:41:13.068Z,1.95
2022-08-22T18:43:23.872Z,2.35
2022-08-22T18:46:11.890Z,2.40
2022-08-22T18:48:20.752Z,2.30
2022-08-22T18:50:30.388Z,2.30
2022-08-22T18:52:38.739Z,1.92
2022-08-22T18:54:50.418Z,1.77
2022-08-22T18:56:55.303Z,2.75
2022-08-22T18:59:06.865Z,2.10
2022-08-22T19:01:44.480Z,2.35
2022-08-22T19:04:08.881Z,2.28
2022-08-22T19:06:43.134Z,2.42
2022-08-22T19:09:02.726Z,2.17
2022-08-22T19:11:13.194Z,2.70
2022-08-22T19:13:37.960Z,2.58
2022-08-22T19:15:49.136Z,2.42
2022-08-22T19:18:05.743Z,2.50
2022-08-22T19:20:28.129Z,2.00
2022-08-22T19:22:34.114Z,2.63
2022-08-22T19:25:03.562Z,2.00
2022-08-22T19:27:25.457Z,2.88
2022-08-22T19:29:54.080Z,2.72
2022-08-22T19:31:58.194Z,2.33
2022-08-22T19:34:19.989Z,3.00
2022-08-22T19:36:33.898Z,2.53
2022-08-22T19:38:58.519Z,2.35
2022-08-22T19:41:03.117Z,3.08
2022-08-22T19:43:20.991Z,2.35
2022-08-22T19:45:28.896Z,2.10
2022-08-22T19:47:35.028Z,2.30
2022-08-22T19:49:39.979Z,3.13
2022-08-22T19:51:43.008Z,2.10
2022-08-22T19:53:52.146Z,2.92
2022-08-22T19:56:20.112Z,2.10
2022-08-22T19:58:32.011Z,1.90
2022-08-22T20:00:48.387Z,2.28
2022-08-22T20:03:01.842Z,2.30
2022-08-22T20:05:14.431Z,2.63
2022-08-22T20:07:30.183Z,2.35
2022-08-22T20:09:39.397Z,2.80
2022-08-22T20:11:47.134Z,2.00
2022-08-22T20:13:50.086Z,2.70
2022-08-22T20:16:08.428Z,2.10
2022-08-22T20:18:11.894Z,2.08
2022-08-22T20:20:40.455Z,2.25
2022-08-22T20:22:45.949Z,2.60
2022-08-22T20:24:53.189Z,1.73
2022-08-22T20:27:15.749Z,2.40
2022-08-22T20:29:20.190Z,2.05
2022-08-22T20:31:26.551Z,2.35
2022-08-22T20:33:33.220Z,2.53
2022-08-22T20:35:40.194Z,2.60
2022-08-22T20:38:05.907Z,2.80
2022-08-22T20:40:26.385Z,2.90
2022-08-22T20:42:46.652Z,2.05
2022-08-22T20:44:54.624Z,2.92
2022-08-22T20:47:02.482Z,3.00
2022-08-22T20:49:07.549Z,1.92
2022-08-22T20:51:14.568Z,2.15
2022-08-22T20:53:20.629Z,1.88
2022-08-22T20:55:31.747Z,2.50
2022-08-22T20:57:36.194Z,2.60
2022-08-22T20:59:42.465Z,2.33
2022-08-22T21:01:45.848Z,2.60
2022-08-22T21:03:50.488Z,2.60
2022-08-22T21:05:53.497Z,3.15
2022-08-22T21:08:04.838Z,2.47
2022-08-22T21:10:35.629Z,2.33
2022-08-22T21:12:38.741Z,2.60
2022-08-22T21:14:46.177Z,2.40
2022-08-22T21:16:49.846Z,2.75
2022-08-22T21:18:54.633Z,2.40
2022-08-22T21:21:17.030Z,2.35
2022-08-22T21:23:21.020Z,2.40
2022-08-22T21:25:24.257Z,2.65
2022-08-22T21:27:30.766Z,2.60
2022-08-22T21:29:34.351Z,2.22
2022-08-22T21:31:45.312Z,2.38
2022-08-22T21:33:50.090Z,2.33
2022-08-22T21:35:57.845Z,2.50
2022-08-22T21:38:01.759Z,2.28
2022-08-22T21:40:10.589Z,1.98
2022-08-22T21:42:24.843Z,2.45
2022-08-22T21:44:36.157Z,2.22
2022-08-22T21:46:40.591Z,1.98
2022-08-22T21:48:45.885Z,2.33
2022-08-22T21:50:48.902Z,2.42
2022-08-22T21:53:03.152Z,2.30
2022-08-22T21:55:17.724Z,2.50
2022-08-22T21:57:36.675Z,2.63
2022-08-22T21:59:51.905Z,2.42
2022-08-22T22:02:28.676Z,2.30
2022-08-22T22:04:31.722Z,2.38
2022-08-22T22:06:34.675Z,2.50
2022-08-22T22:08:37.657Z,2.25
2022-08-22T22:10:43.359Z,2.60
2022-08-22T22:12:48.164Z,2.35
2022-08-22T22:14:51.533Z,2.35
2022-08-22T22:16:54.487Z,2.35
2022-08-22T22:18:59.223Z,2.15
2022-08-22T22:21:02.614Z,2.78
2022-08-22T22:23:06.152Z,2.00
2022-08-22T22:25:40.676Z,2.38
2022-08-22T22:27:33.010Z,2.50
2022-08-22T22:29:36.784Z,2.42
2022-08-22T22:31:39.852Z,2.38
2022-08-22T22:33:43.736Z,2.38
2022-08-22T22:35:49.142Z,2.45
2022-08-22T22:37:52.435Z,1.80
2022-08-22T22:39:56.024Z,2.10
2022-08-22T22:41:59.087Z,2.95
2022-08-22T22:44:02.190Z,2.45
2022-08-22T22:46:08.275Z,2.08
2022-08-22T22:48:11.303Z,2.22
2022-08-22T22:50:20.555Z,2.58
2022-08-22T22:52:25.510Z,2.17
2022-08-22T22:54:29.782Z,2.45
2022-08-22T22:56:32.879Z,1.85
2022-08-22T22:58:38.504Z,2.30
2022-08-22T23:00:42.411Z,2.40
2022-08-22T23:02:45.530Z,2.30
2022-08-22T23:04:52.903Z,2.08
2022-08-22T23:06:55.992Z,2.47
2022-08-22T23:09:00.564Z,2.20
2022-08-22T23:11:10.541Z,2.55
2022-08-22T23:13:13.833Z,2.10
2022-08-22T23:15:16.937Z,1.90
2022-08-22T23:17:20.175Z,2.38
2022-08-22T23:19:23.779Z,2.28
2022-08-22T23:21:30.423Z,2.30
2022-08-22T23:23:33.445Z,2.47
2022-08-22T23:25:37.893Z,2.33
2022-08-22T23:27:40.859Z,2.40
2022-08-22T23:29:43.962Z,2.55
2022-08-22T23:31:51.470Z,2.40
2022-08-22T23:33:54.608Z,2.60
2022-08-22T23:36:00.015Z,2.10
2022-08-22T23:38:03.076Z,2.63
2022-08-22T23:40:09.445Z,2.33
2022-08-22T23:42:14.671Z,3.33
2022-08-22T23:44:22.299Z,2.08
2022-08-22T23:46:27.048Z,2.25
2022-08-22T23:48:29.975Z,2.55
2022-08-22T23:50:36.001Z,2.47
2022-08-22T23:52:38.990Z,2.33
2022-08-22T23:54:42.663Z,2.17
2022-08-22T23:56:47.439Z,2.40
2022-08-22T23:58:53.302Z,2.70
